Time,TemperatureF,DewpointF,PressureIn,WindDirection,WindDirectionDegrees,WindSpeedMPH,WindSpeedGustMPH,Humidity,HourlyPrecipIn,Conditions,Clouds,dailyrainin,SolarRadiationWatts/m^2,SoftwareType,DateUTC
2013-03-26 00:02:00,23.0,-5.0,-100.00,SW,215,3.0,7.0,28,0.00,,,0.04,0.000000,,2013-03-26 06:02:00,
2013-03-26 00:12:00,23.0,-5.0,-100.00,SW,215,3.0,7.0,28,0.00,,,0.04,0.000000,,2013-03-26 06:12:00,
2013-03-26 00:22:00,23.0,-5.0,-100.00,SW,215,3.0,7.0,28,0.00,,,0.04,0.000000,,2013-03-26 06:22:00,
2013-03-26 00:43:00,16.0,0.0,-100.00,NW,322,2.0,6.0,49,0.00,,,0.04,0.000000,,2013-03-26 06:43:00,
2013-03-26 00:52:00,16.0,0.0,-100.00,NW,322,2.0,6.0,49,0.00,,,0.04,0.000000,,2013-03-26 06:52:00,
2013-03-26 01:02:00,16.0,0.0,-100.00,NW,322,2.0,6.0,49,0.00,,,0.04,0.000000,,2013-03-26 07:02:00,
2013-03-26 01:12:00,16.0,0.0,-100.00,NW,322,2.0,6.0,49,0.00,,,0.04,0.000000,,2013-03-26 07:12:00,
2013-03-26 01:22:00,16.0,0.0,-100.00,NW,322,2.0,6.0,49,0.00,,,0.04,0.000000,,2013-03-26 07:22:00,
2013-03-26 01:43:00,12.0,3.0,-100.00,WSW,253,1.0,3.0,65,0.00,,,0.04,0.000000,,2013-03-26 07:43:00,
2013-03-26 01:53:00,12.0,3.0,-100.00,WSW,253,1.0,3.0,65,0.00,,,0.04,0.000000,,2013-03-26 07:53:00,
2013-03-26 02:02:00,12.0,3.0,-100.00,WSW,253,1.0,3.0,65,0.00,,,0.04,0.000000,,2013-03-26 08:02:00,
2013-03-26 02:12:00,12.0,3.0,-100.00,WSW,253,1.0,3.0,65,0.00,,,0.04,0.000000,,2013-03-26 08:12:00,
2013-03-26 02:22:00,12.0,3.0,-100.00,WSW,253,1.0,3.0,65,0.00,,,0.04,0.000000,,2013-03-26 08:22:00,
2013-03-26 02:42:00,10.0,1.0,-100.00,West,280,2.0,2.0,65,0.00,,,0.04,0.000000,,2013-03-26 08:42:00,
2013-03-26 02:52:00,10.0,1.0,-100.00,West,280,2.0,2.0,65,0.00,,,0.04,0.000000,,2013-03-26 08:52:00,
2013-03-26 03:02:00,10.0,1.0,-100.00,West,280,2.0,2.0,65,0.00,,,0.04,0.000000,,2013-03-26 09:02:00,
2013-03-26 03:12:00,10.0,1.0,-100.00,West,280,2.0,2.0,65,0.00,,,0.04,0.000000,,2013-03-26 09:12:00,
2013-03-26 03:22:00,10.0,1.0,-100.00,West,280,2.0,2.0,65,0.00,,,0.04,0.000000,,2013-03-26 09:22:00,
2013-03-26 03:43:00,11.0,1.0,-100.00,NNW,346,1.0,3.0,63,0.00,,,0.04,0.000000,,2013-03-26 09:43:00,
2013-03-26 03:52:00,11.0,1.0,-100.00,NNW,346,1.0,3.0,63,0.00,,,0.04,0.000000,,2013-03-26 09:52:00,
2013-03-26 04:03:00,11.0,1.0,-100.00,NNW,346,1.0,3.0,63,0.00,,,0.04,0.000000,,2013-03-26 10:03:00,
2013-03-26 04:12:00,11.0,1.0,-100.00,NNW,346,1.0,3.0,63,0.00,,,0.04,0.000000,,2013-03-26 10:12:00,
2013-03-26 04:22:00,11.0,1.0,-100.00,NNW,346,1.0,3.0,63,0.00,,,0.04,0.000000,,2013-03-26 10:22:00,
2013-03-26 04:43:00,12.0,1.0,-100.00,NW,316,2.0,4.0,61,0.00,,,0.04,0.000000,,2013-03-26 10:43:00,
2013-03-26 04:53:00,12.0,1.0,-100.00,NW,316,2.0,4.0,61,0.00,,,0.04,0.000000,,2013-03-26 10:53:00,
2013-03-26 05:03:00,12.0,1.0,-100.00,NW,316,2.0,4.0,61,0.00,,,0.04,0.000000,,2013-03-26 11:03:00,
2013-03-26 05:12:00,12.0,1.0,-100.00,NW,316,2.0,4.0,61,0.00,,,0.04,0.000000,,2013-03-26 11:12:00,
2013-03-26 05:22:00,12.0,1.0,-100.00,NW,316,2.0,4.0,61,0.00,,,0.04,0.000000,,2013-03-26 11:22:00,
2013-03-26 05:43:00,12.0,2.0,-100.00,WSW,245,2.0,3.0,62,0.00,,,0.04,0.000000,,2013-03-26 11:43:00,
2013-03-26 05:52:00,12.0,2.0,-100.00,WSW,245,2.0,3.0,62,0.00,,,0.04,0.000000,,2013-03-26 11:52:00,
2013-03-26 06:03:00,12.0,2.0,-100.00,WSW,245,2.0,3.0,62,0.00,,,0.04,0.000000,,2013-03-26 12:03:00,
2013-03-26 06:12:00,12.0,2.0,-100.00,WSW,245,2.0,3.0,62,0.00,,,0.04,0.000000,,2013-03-26 12:12:00,
2013-03-26 06:22:00,12.0,2.0,-100.00,WSW,245,2.0,3.0,62,0.00,,,0.04,0.000000,,2013-03-26 12:22:00,
2013-03-26 06:43:00,13.0,4.0,-100.00,NW,311,2.0,3.0,66,0.00,,,0.04,0.000000,,2013-03-26 12:43:00,
2013-03-26 06:52:00,13.0,4.0,-100.00,NW,311,2.0,3.0,66,0.00,,,0.04,0.000000,,2013-03-26 12:52:00,
2013-03-26 07:03:00,13.0,4.0,-100.00,NW,311,2.0,3.0,66,0.00,,,0.04,0.000000,,2013-03-26 13:03:00,
2013-03-26 07:12:00,13.0,4.0,-100.00,NW,311,2.0,3.0,66,0.00,,,0.04,0.000000,,2013-03-26 13:12:00,
2013-03-26 07:22:00,13.0,4.0,-100.00,NW,311,2.0,3.0,66,0.00,,,0.04,0.000000,,2013-03-26 13:22:00,
2013-03-26 07:42:00,18.0,8.0,-100.00,NW,309,2.0,3.0,64,0.00,,,0.04,14.000000,,2013-03-26 13:42:00,
2013-03-26 07:52:00,18.0,8.0,-100.00,NW,309,2.0,3.0,64,0.00,,,0.04,14.000000,,2013-03-26 13:52:00,
2013-03-26 08:02:00,18.0,8.0,-100.00,NW,309,2.0,3.0,64,0.00,,,0.04,14.000000,,2013-03-26 14:02:00,
2013-03-26 08:11:00,18.0,8.0,-100.00,NW,309,2.0,3.0,64,0.00,,,0.04,14.000000,,2013-03-26 14:11:00,
2013-03-26 08:22:00,18.0,8.0,-100.00,NW,309,2.0,3.0,64,0.00,,,0.04,14.000000,,2013-03-26 14:22:00,
2013-03-26 08:42:00,30.0,9.0,-100.00,NNE,20,2.0,5.0,41,0.00,,,0.04,266.000000,,2013-03-26 14:42:00,
2013-03-26 08:53:00,30.0,9.0,-100.00,NNE,20,2.0,5.0,41,0.00,,,0.04,266.000000,,2013-03-26 14:53:00,
2013-03-26 09:02:00,30.0,9.0,-100.00,NNE,20,2.0,5.0,41,0.00,,,0.04,266.000000,,2013-03-26 15:02:00,
2013-03-26 09:12:00,30.0,9.0,-100.00,NNE,20,2.0,5.0,41,0.00,,,0.04,266.000000,,2013-03-26 15:12:00,
2013-03-26 09:22:00,30.0,9.0,-100.00,NNE,20,2.0,5.0,41,0.00,,,0.04,266.000000,,2013-03-26 15:22:00,
2013-03-26 09:43:00,31.0,10.0,-100.00,ESE,113,3.0,17.0,40,0.00,,,0.04,550.000000,,2013-03-26 15:43:00,
2013-03-26 09:53:00,31.0,10.0,-100.00,ESE,113,3.0,17.0,40,0.00,,,0.04,550.000000,,2013-03-26 15:53:00,
2013-03-26 10:03:00,31.0,10.0,-100.00,ESE,113,3.0,17.0,40,0.00,,,0.04,550.000000,,2013-03-26 16:03:00,
2013-03-26 10:12:00,31.0,10.0,-100.00,ESE,113,3.0,17.0,40,0.00,,,0.04,550.000000,,2013-03-26 16:12:00,
2013-03-26 10:22:00,31.0,10.0,-100.00,ESE,113,3.0,17.0,40,0.00,,,0.04,550.000000,,2013-03-26 16:22:00,
2013-03-26 10:23:00,36.0,13.0,-100.00,ESE,113,3.0,5.0,39,0.00,,,0.04,756.000000,,2013-03-26 16:23:00,
2013-03-26 10:42:00,36.0,13.0,-100.00,ESE,113,3.0,5.0,39,0.00,,,0.04,756.000000,,2013-03-26 16:42:00,
2013-03-26 10:53:00,36.0,13.0,-100.00,ESE,113,3.0,5.0,39,0.00,,,0.04,756.000000,,2013-03-26 16:53:00,
2013-03-26 11:02:00,36.0,13.0,-100.00,ESE,113,3.0,5.0,39,0.00,,,0.04,756.000000,,2013-03-26 17:02:00,
2013-03-26 11:12:00,36.0,13.0,-100.00,ESE,113,3.0,5.0,39,0.00,,,0.04,756.000000,,2013-03-26 17:12:00,
2013-03-26 11:23:00,43.0,17.0,-100.00,ENE,66,4.0,5.0,35,0.00,,,-99.99,754.000000,,2013-03-26 17:23:00,
2013-03-26 11:42:00,43.0,17.0,-100.00,ENE,66,4.0,5.0,35,0.00,,,-99.99,754.000000,,2013-03-26 17:42:00,
2013-03-26 11:53:00,43.0,17.0,-100.00,ENE,66,4.0,5.0,35,0.00,,,-99.99,754.000000,,2013-03-26 17:53:00,
2013-03-26 12:02:00,43.0,17.0,-100.00,ENE,66,4.0,5.0,35,0.00,,,-99.99,754.000000,,2013-03-26 18:02:00,
2013-03-26 12:12:00,43.0,17.0,-100.00,ENE,66,4.0,5.0,35,0.00,,,-99.99,754.000000,,2013-03-26 18:12:00,
2013-03-26 12:42:00,46.0,16.0,-100.00,SSW,194,6.0,12.0,29,0.04,,,0.08,1106.000000,,2013-03-26 18:42:00,
2013-03-26 12:53:00,46.0,16.0,-100.00,SSW,194,6.0,12.0,29,0.04,,,0.08,1106.000000,,2013-03-26 18:53:00,
2013-03-26 13:03:00,46.0,16.0,-100.00,SSW,194,6.0,12.0,29,0.04,,,0.08,1106.000000,,2013-03-26 19:03:00,
2013-03-26 13:12:00,46.0,16.0,-100.00,SSW,194,6.0,12.0,29,0.04,,,0.08,1106.000000,,2013-03-26 19:12:00,
2013-03-26 13:22:00,46.0,16.0,-100.00,SSW,194,6.0,12.0,29,0.04,,,0.08,1106.000000,,2013-03-26 19:22:00,
2013-03-26 13:42:00,45.0,11.0,-100.00,South,173,7.0,19.0,25,0.01,,,0.09,1098.000000,,2013-03-26 19:42:00,
2013-03-26 13:53:00,45.0,11.0,-100.00,South,173,7.0,19.0,25,0.01,,,0.09,1098.000000,,2013-03-26 19:53:00,
2013-03-26 14:02:00,45.0,11.0,-100.00,South,173,7.0,19.0,25,0.01,,,0.09,1098.000000,,2013-03-26 20:02:00,
2013-03-26 14:13:00,45.0,11.0,-100.00,South,173,7.0,19.0,25,0.01,,,0.09,1098.000000,,2013-03-26 20:13:00,
2013-03-26 14:22:00,45.0,11.0,-100.00,South,173,7.0,19.0,25,0.01,,,0.09,1098.000000,,2013-03-26 20:22:00,
2013-03-26 14:43:00,47.0,10.0,-100.00,SSE,160,5.0,18.0,22,0.01,,,0.10,1073.000000,,2013-03-26 20:43:00,
2013-03-26 14:52:00,47.0,10.0,-100.00,SSE,160,5.0,18.0,22,0.01,,,0.10,1073.000000,,2013-03-26 20:52:00,
2013-03-26 15:02:00,47.0,10.0,-100.00,SSE,160,5.0,18.0,22,0.01,,,0.10,1073.000000,,2013-03-26 21:02:00,
2013-03-26 15:12:00,47.0,10.0,-100.00,SSE,160,5.0,18.0,22,0.01,,,0.10,1073.000000,,2013-03-26 21:12:00,
2013-03-26 15:22:00,47.0,10.0,-100.00,SSE,160,5.0,18.0,22,0.01,,,0.10,1073.000000,,2013-03-26 21:22:00,
2013-03-26 15:43:00,47.0,8.0,-100.00,NNE,28,5.0,16.0,20,0.00,,,0.09,944.000000,,2013-03-26 21:43:00,
2013-03-26 15:52:00,47.0,8.0,-100.00,NNE,28,5.0,16.0,20,0.00,,,0.09,944.000000,,2013-03-26 21:52:00,
2013-03-26 16:02:00,47.0,8.0,-100.00,NNE,28,5.0,16.0,20,0.00,,,0.09,944.000000,,2013-03-26 22:02:00,
2013-03-26 16:12:00,47.0,8.0,-100.00,NNE,28,5.0,16.0,20,0.00,,,0.09,944.000000,,2013-03-26 22:12:00,
2013-03-26 16:22:00,47.0,8.0,-100.00,NNE,28,5.0,16.0,20,0.00,,,0.09,944.000000,,2013-03-26 22:22:00,
2013-03-26 16:42:00,47.0,6.0,-100.00,WSW,253,5.0,13.0,18,0.00,,,0.08,720.000000,,2013-03-26 22:42:00,
2013-03-26 16:52:00,47.0,6.0,-100.00,WSW,253,5.0,13.0,18,0.00,,,0.08,720.000000,,2013-03-26 22:52:00,
2013-03-26 17:01:00,47.0,6.0,-100.00,WSW,253,5.0,13.0,18,0.00,,,0.08,720.000000,,2013-03-26 23:01:00,
2013-03-26 17:10:00,47.0,6.0,-100.00,WSW,253,5.0,13.0,18,0.00,,,0.08,720.000000,,2013-03-26 23:10:00,
2013-03-26 17:22:00,47.0,6.0,-100.00,WSW,253,5.0,13.0,18,0.00,,,0.08,720.000000,,2013-03-26 23:22:00,
2013-03-26 17:43:00,44.0,10.0,-100.00,NNW,333,3.0,10.0,24,0.00,,,0.06,300.000000,,2013-03-26 23:43:00,
2013-03-26 17:53:00,44.0,10.0,-100.00,NNW,333,3.0,10.0,24,0.00,,,0.06,300.000000,,2013-03-26 23:53:00,
2013-03-26 18:02:00,44.0,10.0,-100.00,NNW,333,3.0,10.0,24,0.00,,,0.06,300.000000,,2013-03-27 00:02:00,
2013-03-26 18:12:00,44.0,10.0,-100.00,NNW,333,3.0,10.0,24,0.00,,,0.06,300.000000,,2013-03-27 00:12:00,
2013-03-26 18:22:00,44.0,10.0,-100.00,NNW,333,3.0,10.0,24,0.00,,,0.06,300.000000,,2013-03-27 00:22:00,
2013-03-26 18:42:00,41.0,13.0,-100.00,ESE,108,2.0,9.0,32,0.00,,,0.06,103.000000,,2013-03-27 00:42:00,
2013-03-26 18:52:00,41.0,13.0,-100.00,ESE,108,2.0,9.0,32,0.00,,,0.06,103.000000,,2013-03-27 00:52:00,
2013-03-26 19:02:00,41.0,13.0,-100.00,ESE,108,2.0,9.0,32,0.00,,,0.06,103.000000,,2013-03-27 01:02:00,
2013-03-26 19:12:00,41.0,13.0,-100.00,ESE,108,2.0,9.0,32,0.00,,,0.06,103.000000,,2013-03-27 01:12:00,
2013-03-26 19:22:00,41.0,13.0,-100.00,ESE,108,2.0,9.0,32,0.00,,,0.06,103.000000,,2013-03-27 01:22:00,
2013-03-26 19:43:00,39.0,13.0,-100.00,WSW,246,4.0,8.0,34,0.00,,,0.06,19.000000,,2013-03-27 01:43:00,
2013-03-26 19:53:00,39.0,13.0,-100.00,WSW,246,4.0,8.0,34,0.00,,,0.06,19.000000,,2013-03-27 01:53:00,
2013-03-26 20:03:00,39.0,13.0,-100.00,WSW,246,4.0,8.0,34,0.00,,,0.06,19.000000,,2013-03-27 02:03:00,
2013-03-26 20:12:00,39.0,13.0,-100.00,WSW,246,4.0,8.0,34,0.00,,,0.06,19.000000,,2013-03-27 02:12:00,
2013-03-26 20:22:00,39.0,13.0,-100.00,WSW,246,4.0,8.0,34,0.00,,,0.06,19.000000,,2013-03-27 02:22:00,
2013-03-26 20:43:00,37.0,16.0,-100.00,WSW,252,3.0,9.0,42,0.00,,,0.06,1.000000,,2013-03-27 02:43:00,
2013-03-26 20:53:00,37.0,16.0,-100.00,WSW,252,3.0,9.0,42,0.00,,,0.06,1.000000,,2013-03-27 02:53:00,
2013-03-26 21:02:00,37.0,16.0,-100.00,WSW,252,3.0,9.0,42,0.00,,,0.06,1.000000,,2013-03-27 03:02:00,
2013-03-26 21:12:00,37.0,16.0,-100.00,WSW,252,3.0,9.0,42,0.00,,,0.06,1.000000,,2013-03-27 03:12:00,
2013-03-26 21:22:00,37.0,16.0,-100.00,WSW,252,3.0,9.0,42,0.00,,,0.06,1.000000,,2013-03-27 03:22:00,
2013-03-26 21:23:00,38.0,15.0,-100.00,SW,227,6.0,12.0,39,0.00,,,0.06,0.000000,,2013-03-27 03:23:00,
2013-03-26 21:43:00,38.0,15.0,-100.00,SW,227,6.0,12.0,39,0.00,,,0.06,0.000000,,2013-03-27 03:43:00,
2013-03-26 21:53:00,38.0,15.0,-100.00,SW,227,6.0,12.0,39,0.00,,,0.06,0.000000,,2013-03-27 03:53:00,
2013-03-26 22:02:00,38.0,15.0,-100.00,SW,227,6.0,12.0,39,0.00,,,0.06,0.000000,,2013-03-27 04:02:00,
2013-03-26 22:13:00,38.0,15.0,-100.00,SW,227,6.0,12.0,39,0.00,,,0.06,0.000000,,2013-03-27 04:13:00,
2013-03-26 22:43:00,38.0,13.0,-100.00,WSW,237,4.0,13.0,36,0.00,,,0.06,0.000000,,2013-03-27 04:43:00,
2013-03-26 22:52:00,38.0,13.0,-100.00,WSW,237,4.0,13.0,36,0.00,,,0.06,0.000000,,2013-03-27 04:52:00,
2013-03-26 23:02:00,38.0,13.0,-100.00,WSW,237,4.0,13.0,36,0.00,,,0.06,0.000000,,2013-03-27 05:02:00,
2013-03-26 23:12:00,38.0,13.0,-100.00,WSW,237,4.0,13.0,36,0.00,,,0.06,0.000000,,2013-03-27 05:12:00,
2013-03-26 23:22:00,38.0,13.0,-100.00,WSW,237,4.0,13.0,36,0.00,,,0.06,0.000000,,2013-03-27 05:22:00,
2013-03-26 23:42:00,38.0,13.0,-100.00,WSW,238,4.0,11.0,35,0.00,,,0.06,0.000000,,2013-03-27 05:42:00,
2013-03-26 23:52:00,38.0,13.0,-100.00,WSW,238,4.0,11.0,35,0.00,,,0.06,0.000000,,2013-03-27 05:52:00,